Time;durP1;ratioP1;P1;durP2;ratioP2;P2;SDS_P1;SDS_P2;PMS_P1;PMS_P2;Temp;Humidity;BMP_temperature;BMP_pressure;BME280_temperature;BME280_humidity;BME280_pressure;Samples;Min_cycle;Max_cycle;Signal;HPM_P1;HPM_P2
2022/06/30 00:01:49;;;;;;;6.77;6.27;;;;;;;;;;5088446;28;20172;-50
2022/06/30 00:04:16;;;;;;;7.23;6.73;;;;;;;;;;5081489;28;20208;-50
2022/06/30 00:06:42;;;;;;;7.63;7.03;;;;;;;;;;5069033;28;20247;-49
2022/06/30 00:09:08;;;;;;;7.00;6.47;;;;;;;;;;5068243;28;20238;-49
2022/06/30 00:11:35;;;;;;;6.67;6.20;;;;;;;;;;5051874;28;20386;-49
2022/06/30 00:14:01;;;;;;;6.60;6.10;;;;;;;;;;5069605;28;20223;-50
2022/06/30 00:16:28;;;;;;;7.60;7.00;;;;;;;;;;5068052;28;20176;-50
2022/06/30 00:18:54;;;;;;;6.83;6.23;;;;;;;;;;5068267;28;20242;-50
2022/06/30 00:21:20;;;;;;;7.00;6.50;;;;;;;;;;5067301;28;20195;-52
2022/06/30 00:23:47;;;;;;;7.17;6.47;;;;;;;;;;5063992;28;20188;-49
2022/06/30 00:26:13;;;;;;;7.77;7.17;;;;;;;;;;5085429;28;20658;-49
2022/06/30 00:28:40;;;;;;;7.13;6.63;;;;;;;;;;5069482;28;20164;-49
2022/06/30 00:31:07;;;;;;;7.37;6.87;;;;;;;;;;5085067;28;20164;-50
2022/06/30 00:33:33;;;;;;;6.93;6.43;;;;;;;;;;5069267;28;20191;-50
2022/06/30 00:35:59;;;;;;;7.57;6.97;;;;;;;;;;5085014;28;20659;-49
2022/06/30 00:38:26;;;;;;;7.40;6.80;;;;;;;;;;5085635;28;20273;-50
2022/06/30 00:40:52;;;;;;;6.33;5.93;;;;;;;;;;5089653;28;20192;-51
2022/06/30 00:43:18;;;;;;;6.67;6.17;;;;;;;;;;5089754;28;20634;-50
2022/06/30 00:45:46;;;;;;;6.97;6.47;;;;;;;;;;5089170;28;20200;-51
2022/06/30 00:48:13;;;;;;;6.93;6.37;;;;;;;;;;5088528;28;20242;-49
2022/06/30 00:50:40;;;;;;;7.13;6.53;;;;;;;;;;5089193;28;20265;-49
2022/06/30 00:53:08;;;;;;;6.73;6.23;;;;;;;;;;5086555;28;20189;-49
2022/06/30 00:55:34;;;;;;;6.53;6.13;;;;;;;;;;5087792;28;20187;-48
2022/06/30 00:58:01;;;;;;;6.80;6.30;;;;;;;;;;5089381;28;20182;-50
2022/06/30 01:00:29;;;;;;;6.70;6.20;;;;;;;;;;5069927;28;20589;-50
2022/06/30 01:02:56;;;;;;;7.80;7.20;;;;;;;;;;5067300;28;20191;-49
2022/06/30 01:05:23;;;;;;;7.07;6.47;;;;;;;;;;5067385;28;20225;-49
2022/06/30 01:07:49;;;;;;;7.10;6.60;;;;;;;;;;5067655;28;20267;-49
2022/06/30 01:13:00;;;;;;;7.50;7.00;;;;;;;;;;5068986;28;20755;-49
2022/06/30 01:15:27;;;;;;;7.23;6.73;;;;;;;;;;5068313;28;20202;-49
2022/06/30 01:17:53;;;;;;;7.37;6.77;;;;;;;;;;5067047;28;20183;-50
2022/06/30 01:20:24;;;;;;;6.97;6.47;;;;;;;;;;5068358;28;20175;-50
2022/06/30 01:22:51;;;;;;;7.30;6.80;;;;;;;;;;5067309;28;20587;-50
2022/06/30 01:25:17;;;;;;;6.90;6.40;;;;;;;;;;5068467;28;20211;-50
2022/06/30 01:27:43;;;;;;;6.40;6.00;;;;;;;;;;5067329;28;20199;-51
2022/06/30 01:30:10;;;;;;;11.37;10.60;;;;;;;;;;5066917;28;20234;-50
2022/06/30 01:32:37;;;;;;;8.13;7.53;;;;;;;;;;5050435;28;20626;-49
2022/06/30 01:35:03;;;;;;;7.27;6.77;;;;;;;;;;5067269;28;20188;-49
2022/06/30 01:37:44;;;;;;;6.90;6.40;;;;;;;;;;5067456;28;20175;-50
2022/06/30 01:40:13;;;;;;;7.10;6.60;;;;;;;;;;5098664;28;20293;-50
2022/06/30 01:42:40;;;;;;;8.03;7.33;;;;;;;;;;5108320;28;20232;-50
2022/06/30 01:45:06;;;;;;;7.27;6.77;;;;;;;;;;5063740;28;20215;-50
2022/06/30 01:47:33;;;;;;;7.67;7.07;;;;;;;;;;5088219;28;20182;-50
2022/06/30 01:50:00;;;;;;;7.43;6.93;;;;;;;;;;5058526;28;20211;-50
2022/06/30 01:52:32;;;;;;;7.30;6.77;;;;;;;;;;5095541;28;20185;-50
2022/06/30 01:54:59;;;;;;;7.60;7.10;;;;;;;;;;5083568;28;20278;-50
2022/06/30 01:57:25;;;;;;;7.30;6.80;;;;;;;;;;5076659;28;20179;-50
2022/06/30 01:59:52;;;;;;;7.43;6.83;;;;;;;;;;5094901;28;20539;-50
2022/06/30 02:02:18;;;;;;;7.83;7.23;;;;;;;;;;5096868;28;20700;-50
2022/06/30 02:04:51;;;;;;;7.33;6.83;;;;;;;;;;5115387;28;20167;-50
2022/06/30 02:07:18;;;;;;;6.80;6.30;;;;;;;;;;5114533;28;20552;-50
2022/06/30 02:09:45;;;;;;;7.53;6.97;;;;;;;;;;5096510;28;20179;-50
2022/06/30 02:14:57;;;;;;;7.20;6.70;;;;;;;;;;5115520;28;20255;-50
2022/06/30 02:17:23;;;;;;;6.17;5.67;;;;;;;;;;5115384;28;20174;-50
2022/06/30 02:19:49;;;;;;;6.73;6.23;;;;;;;;;;5114787;28;20227;-50
2022/06/30 02:22:16;;;;;;;7.40;6.80;;;;;;;;;;5113941;28;20186;-50
2022/06/30 02:24:51;;;;;;;7.33;6.83;;;;;;;;;;5081699;28;20578;-49
2022/06/30 02:27:21;;;;;;;7.07;6.53;;;;;;;;;;5096526;28;20635;-49
2022/06/30 02:29:47;;;;;;;7.57;7.03;;;;;;;;;;5114930;28;20269;-49
2022/06/30 02:32:13;;;;;;;7.40;6.90;;;;;;;;;;5096819;28;20790;-50
2022/06/30 02:34:40;;;;;;;7.37;6.87;;;;;;;;;;5114968;28;20499;-50
2022/06/30 02:37:06;;;;;;;7.07;6.57;;;;;;;;;;5096004;28;20193;-50
2022/06/30 02:39:32;;;;;;;7.47;6.97;;;;;;;;;;5077739;28;20220;-49
2022/06/30 02:41:58;;;;;;;8.03;7.37;;;;;;;;;;5074800;28;20164;-51
2022/06/30 02:44:25;;;;;;;7.33;6.73;;;;;;;;;;5074695;28;20447;-50
2022/06/30 02:46:51;;;;;;;7.60;7.00;;;;;;;;;;5074637;28;20202;-51
2022/06/30 02:49:23;;;;;;;8.23;7.63;;;;;;;;;;5074196;28;20202;-50
2022/06/30 02:51:50;;;;;;;7.70;7.10;;;;;;;;;;5073641;28;20198;-49
2022/06/30 02:54:16;;;;;;;11.50;10.80;;;;;;;;;;5074572;28;20175;-49
2022/06/30 02:56:42;;;;;;;7.50;6.97;;;;;;;;;;5074406;28;20168;-49
2022/06/30 02:59:09;;;;;;;7.53;6.93;;;;;;;;;;5074729;28;20222;-49
2022/06/30 03:01:35;;;;;;;8.13;7.43;;;;;;;;;;5070464;28;20217;-50
2022/06/30 03:04:02;;;;;;;7.10;6.60;;;;;;;;;;5069699;28;20218;-50
2022/06/30 03:06:29;;;;;;;7.60;7.00;;;;;;;;;;5069070;28;20202;-49
2022/06/30 03:08:59;;;;;;;7.90;7.30;;;;;;;;;;5071312;28;20261;-49
2022/06/30 03:11:26;;;;;;;8.17;7.57;;;;;;;;;;5069881;28;20181;-49
2022/06/30 03:13:53;;;;;;;7.90;7.30;;;;;;;;;;5071381;28;20182;-49
2022/06/30 03:16:19;;;;;;;10.27;9.57;;;;;;;;;;5071236;28;20166;-48
2022/06/30 03:18:46;;;;;;;8.03;7.43;;;;;;;;;;5069724;28;20701;-48
2022/06/30 03:21:12;;;;;;;8.03;7.33;;;;;;;;;;5069406;28;20588;-47
2022/06/30 03:23:42;;;;;;;7.80;7.20;;;;;;;;;;5069239;28;20173;-48
2022/06/30 03:26:08;;;;;;;7.20;6.70;;;;;;;;;;5069630;28;20201;-48
2022/06/30 03:28:35;;;;;;;7.67;7.07;;;;;;;;;;5069708;28;20178;-49
2022/06/30 03:31:01;;;;;;;8.50;7.70;;;;;;;;;;5069675;28;20180;-49
2022/06/30 03:33:28;;;;;;;8.30;7.63;;;;;;;;;;5069742;28;20275;-49
2022/06/30 03:35:57;;;;;;;7.33;6.73;;;;;;;;;;5033241;28;20178;-49
2022/06/30 03:38:24;;;;;;;7.70;7.10;;;;;;;;;;5048422;28;20190;-49
2022/06/30 03:40:50;;;;;;;8.60;7.90;;;;;;;;;;5055224;28;20310;-49
2022/06/30 03:43:17;;;;;;;8.87;8.17;;;;;;;;;;5085561;28;20557;-48
2022/06/30 03:45:43;;;;;;;8.03;7.47;;;;;;;;;;5070651;28;20300;-49
2022/06/30 03:48:10;;;;;;;7.50;6.90;;;;;;;;;;5069018;28;20564;-49
2022/06/30 03:50:36;;;;;;;7.80;7.30;;;;;;;;;;5069058;28;20205;-50
2022/06/30 03:53:08;;;;;;;8.53;7.93;;;;;;;;;;5069963;28;20173;-49
2022/06/30 03:55:34;;;;;;;7.33;6.77;;;;;;;;;;5068556;28;20645;-49
2022/06/30 03:58:00;;;;;;;8.13;7.53;;;;;;;;;;5070744;28;20170;-50
2022/06/30 04:00:27;;;;;;;8.83;8.03;;;;;;;;;;5070538;28;20628;-49
2022/06/30 04:02:53;;;;;;;7.87;7.27;;;;;;;;;;5068739;28;20252;-49
2022/06/30 04:05:19;;;;;;;10.93;10.23;;;;;;;;;;5070499;28;20208;-49
2022/06/30 04:07:46;;;;;;;8.20;7.50;;;;;;;;;;5069003;28;20220;-51
2022/06/30 04:10:13;;;;;;;8.30;7.70;;;;;;;;;;5068677;28;20567;-50
2022/06/30 04:12:40;;;;;;;8.70;8.00;;;;;;;;;;5068097;28;20185;-49
2022/06/30 04:15:07;;;;;;;8.50;7.90;;;;;;;;;;5069822;28;20177;-50
2022/06/30 04:17:33;;;;;;;8.63;8.03;;;;;;;;;;5070221;28;20636;-51
2022/06/30 04:20:03;;;;;;;8.63;7.93;;;;;;;;;;5069803;28;20179;-50
2022/06/30 04:22:30;;;;;;;8.60;8.00;;;;;;;;;;5068735;28;20221;-49
2022/06/30 04:24:56;;;;;;;8.20;7.50;;;;;;;;;;5068245;28;20193;-50
2022/06/30 04:27:22;;;;;;;10.90;10.20;;;;;;;;;;5068878;28;20241;-49
2022/06/30 04:29:51;;;;;;;11.57;10.67;;;;;;;;;;5069775;28;20162;-50
2022/06/30 04:35:02;;;;;;;9.20;8.40;;;;;;;;;;5069778;28;20176;-49
2022/06/30 04:37:28;;;;;;;9.30;8.60;;;;;;;;;;5066997;28;20211;-48
2022/06/30 04:42:54;;;;;;;8.97;8.23;;;;;;;;;;5110926;28;20173;-49
2022/06/30 04:45:23;;;;;;;9.33;8.63;;;;;;;;;;5109569;28;20213;-49
2022/06/30 04:47:50;;;;;;;9.90;9.10;;;;;;;;;;5110361;28;20162;-49
2022/06/30 04:50:16;;;;;;;9.40;8.70;;;;;;;;;;5076311;28;20198;-48
2022/06/30 04:52:42;;;;;;;11.13;10.23;;;;;;;;;;5088713;28;20163;-49
2022/06/30 04:55:09;;;;;;;8.83;8.13;;;;;;;;;;5071234;28;20181;-48
2022/06/30 04:57:35;;;;;;;9.13;8.33;;;;;;;;;;5110305;28;20158;-48
2022/06/30 05:00:02;;;;;;;8.53;7.93;;;;;;;;;;5109515;28;20721;-48
2022/06/30 05:02:28;;;;;;;9.50;8.80;;;;;;;;;;5110151;28;20177;-49
2022/06/30 05:04:54;;;;;;;9.87;9.10;;;;;;;;;;5091082;28;20183;-49
2022/06/30 05:07:21;;;;;;;9.70;8.97;;;;;;;;;;5090226;28;20642;-49
2022/06/30 05:09:47;;;;;;;9.47;8.77;;;;;;;;;;5109398;28;20156;-48
2022/06/30 05:12:14;;;;;;;9.53;8.83;;;;;;;;;;5089920;28;20258;-49
2022/06/30 05:14:41;;;;;;;9.23;8.43;;;;;;;;;;5061058;28;20179;-49
2022/06/30 05:17:07;;;;;;;11.00;9.97;;;;;;;;;;5090966;28;20175;-49
2022/06/30 05:19:33;;;;;;;9.77;8.87;;;;;;;;;;5082351;28;20517;-49
2022/06/30 05:22:00;;;;;;;10.17;9.33;;;;;;;;;;5088094;28;20157;-49
2022/06/30 05:27:12;;;;;;;9.10;8.40;;;;;;;;;;5109719;28;20177;-50
2022/06/30 05:29:39;;;;;;;9.77;8.87;;;;;;;;;;5109077;28;20175;-49
2022/06/30 05:32:06;;;;;;;10.37;9.47;;;;;;;;;;5109570;28;20776;-49
2022/06/30 05:34:32;;;;;;;9.57;8.87;;;;;;;;;;5090704;28;20179;-50
2022/06/30 05:36:59;;;;;;;11.13;10.03;;;;;;;;;;5108516;28;20177;-49
2022/06/30 05:39:25;;;;;;;9.30;8.60;;;;;;;;;;5085867;28;20256;-49
2022/06/30 05:41:52;;;;;;;10.43;9.53;;;;;;;;;;5090656;28;20181;-49
2022/06/30 05:44:18;;;;;;;10.73;9.83;;;;;;;;;;5102149;28;20180;-49
2022/06/30 05:46:45;;;;;;;11.70;10.77;;;;;;;;;;5109023;28;20182;-49
2022/06/30 05:49:11;;;;;;;11.47;10.37;;;;;;;;;;5090860;28;20260;-48
2022/06/30 05:51:37;;;;;;;12.13;11.00;;;;;;;;;;5107872;28;20494;-49
2022/06/30 05:54:04;;;;;;;12.27;11.20;;;;;;;;;;5108808;28;20260;-49
2022/06/30 05:56:30;;;;;;;12.20;11.20;;;;;;;;;;5109240;28;20180;-50
2022/06/30 05:58:56;;;;;;;11.77;10.77;;;;;;;;;;5087017;28;20169;-49
2022/06/30 06:01:26;;;;;;;12.47;11.33;;;;;;;;;;5070442;28;20171;-49
2022/06/30 06:03:52;;;;;;;12.77;11.70;;;;;;;;;;5073548;28;20169;-49
2022/06/30 06:06:19;;;;;;;12.13;10.97;;;;;;;;;;5108166;28;20296;-49
2022/06/30 06:08:45;;;;;;;13.27;12.07;;;;;;;;;;5090280;28;20192;-50
2022/06/30 06:11:12;;;;;;;13.47;12.27;;;;;;;;;;5109407;28;20167;-50
2022/06/30 06:13:38;;;;;;;12.70;11.60;;;;;;;;;;5108791;28;20158;-50
2022/06/30 06:16:04;;;;;;;13.90;12.60;;;;;;;;;;5090856;28;20171;-50
2022/06/30 06:18:31;;;;;;;13.00;11.70;;;;;;;;;;5090445;28;20213;-50
2022/06/30 06:20:57;;;;;;;12.77;11.47;;;;;;;;;;5090924;28;20177;-51
2022/06/30 06:23:24;;;;;;;13.07;11.53;;;;;;;;;;5085882;28;20177;-51
2022/06/30 06:25:51;;;;;;;12.03;10.90;;;;;;;;;;5070266;28;20196;-51
2022/06/30 06:31:03;;;;;;;13.27;11.97;;;;;;;;;;5053780;28;20698;-51
2022/06/30 06:33:30;;;;;;;12.63;11.53;;;;;;;;;;5050190;28;20181;-51
2022/06/30 06:35:56;;;;;;;12.67;11.60;;;;;;;;;;5093512;28;20183;-50
2022/06/30 06:38:23;;;;;;;12.10;11.00;;;;;;;;;;5093156;28;20169;-51
2022/06/30 06:40:49;;;;;;;13.00;11.73;;;;;;;;;;5061194;28;20224;-52
2022/06/30 06:43:18;;;;;;;12.70;11.70;;;;;;;;;;5037518;28;20706;-51
2022/06/30 06:45:45;;;;;;;12.17;11.07;;;;;;;;;;5071956;28;20229;-49
2022/06/30 06:48:11;;;;;;;13.33;12.13;;;;;;;;;;5071282;28;20228;-50
2022/06/30 06:50:37;;;;;;;12.50;11.30;;;;;;;;;;5070552;28;20266;-48
2022/06/30 06:53:04;;;;;;;11.87;10.87;;;;;;;;;;5091319;28;20555;-50
2022/06/30 06:55:30;;;;;;;12.53;11.23;;;;;;;;;;5091986;28;20176;-50
2022/06/30 06:57:57;;;;;;;11.23;10.23;;;;;;;;;;5073624;28;20640;-51
2022/06/30 07:00:23;;;;;;;11.83;10.83;;;;;;;;;;5073444;28;20267;-51
2022/06/30 07:02:49;;;;;;;11.00;10.03;;;;;;;;;;5091896;28;20235;-51
2022/06/30 07:05:16;;;;;;;11.87;10.73;;;;;;;;;;5073303;28;20622;-51
2022/06/30 07:07:42;;;;;;;10.70;9.80;;;;;;;;;;5090968;28;20198;-50
2022/06/30 07:10:08;;;;;;;11.23;10.33;;;;;;;;;;5059907;28;20268;-51
2022/06/30 07:12:35;;;;;;;11.70;10.63;;;;;;;;;;5071131;28;20208;-51
2022/06/30 07:15:02;;;;;;;10.73;9.83;;;;;;;;;;5071657;28;20178;-50
2022/06/30 07:17:28;;;;;;;10.93;10.03;;;;;;;;;;5070990;28;20169;-51
2022/06/30 07:19:54;;;;;;;10.10;9.20;;;;;;;;;;5071172;28;20219;-51
2022/06/30 07:22:21;;;;;;;10.53;9.60;;;;;;;;;;5070059;28;20155;-52
2022/06/30 07:24:47;;;;;;;10.37;9.47;;;;;;;;;;5073087;28;20197;-51
2022/06/30 07:27:13;;;;;;;9.93;9.13;;;;;;;;;;5070010;28;20292;-50
2022/06/30 07:29:40;;;;;;;10.80;9.70;;;;;;;;;;5070266;28;20658;-50
2022/06/30 07:32:06;;;;;;;9.87;8.97;;;;;;;;;;5070286;28;20155;-51
2022/06/30 07:34:32;;;;;;;11.67;9.60;;;;;;;;;;5070595;28;20775;-51
2022/06/30 07:36:59;;;;;;;11.33;10.23;;;;;;;;;;5067613;28;20165;-52
2022/06/30 07:39:25;;;;;;;8.87;8.07;;;;;;;;;;5073531;28;20245;-51
2022/06/30 07:41:51;;;;;;;9.77;8.87;;;;;;;;;;5090732;28;20194;-52
2022/06/30 07:44:17;;;;;;;10.37;9.37;;;;;;;;;;5089921;28;20526;-51
2022/06/30 07:46:44;;;;;;;9.60;8.73;;;;;;;;;;5110395;28;20198;-52
2022/06/30 07:49:10;;;;;;;10.63;9.63;;;;;;;;;;5095229;28;20179;-51
2022/06/30 07:51:36;;;;;;;10.17;9.33;;;;;;;;;;5100057;28;20523;-51
2022/06/30 07:54:02;;;;;;;9.67;8.87;;;;;;;;;;5094499;28;20637;-51
2022/06/30 07:56:30;;;;;;;10.30;9.30;;;;;;;;;;5102560;28;20530;-51
2022/06/30 07:58:57;;;;;;;9.53;8.80;;;;;;;;;;5076306;28;20175;-52
2022/06/30 08:01:23;;;;;;;8.97;8.17;;;;;;;;;;5096844;28;20195;-51
2022/06/30 08:03:50;;;;;;;9.63;8.83;;;;;;;;;;5078279;28;20580;-51
2022/06/30 08:06:16;;;;;;;8.43;7.63;;;;;;;;;;5085513;28;20648;-51
2022/06/30 08:08:43;;;;;;;9.33;8.43;;;;;;;;;;5090816;28;20209;-51
2022/06/30 08:11:10;;;;;;;9.00;8.10;;;;;;;;;;5094582;28;20215;-51
2022/06/30 08:13:36;;;;;;;9.00;8.10;;;;;;;;;;5090989;28;20594;-51
2022/06/30 08:16:03;;;;;;;8.33;7.50;;;;;;;;;;5095651;28;20193;-51
2022/06/30 08:18:30;;;;;;;8.40;7.70;;;;;;;;;;5072298;28;20634;-51
2022/06/30 08:20:56;;;;;;;7.67;7.00;;;;;;;;;;5085400;28;20199;-51
2022/06/30 08:23:23;;;;;;;9.33;8.10;;;;;;;;;;5086358;28;20192;-51
2022/06/30 08:25:49;;;;;;;8.10;7.10;;;;;;;;;;5072024;28;20644;-51
2022/06/30 08:28:16;;;;;;;7.93;7.33;;;;;;;;;;5110376;28;20244;-51
2022/06/30 08:30:42;;;;;;;8.10;6.83;;;;;;;;;;5073350;28;20198;-51
2022/06/30 08:33:08;;;;;;;7.53;6.83;;;;;;;;;;5089158;28;20196;-50
2022/06/30 08:35:35;;;;;;;7.00;6.30;;;;;;;;;;5068813;28;20203;-51
2022/06/30 08:38:01;;;;;;;9.40;6.33;;;;;;;;;;5108398;28;20195;-52
2022/06/30 08:43:14;;;;;;;9.20;6.53;;;;;;;;;;5110825;28;20171;-52
2022/06/30 08:45:42;;;;;;;6.07;5.57;;;;;;;;;;5091371;28;20206;-52
2022/06/30 08:48:08;;;;;;;6.10;5.50;;;;;;;;;;5110088;28;20167;-52
2022/06/30 08:50:35;;;;;;;14.93;6.53;;;;;;;;;;5109688;28;20275;-52
2022/06/30 08:53:03;;;;;;;6.60;5.50;;;;;;;;;;5109258;28;20455;-52
2022/06/30 08:55:30;;;;;;;7.03;4.80;;;;;;;;;;5110085;28;20540;-51
2022/06/30 08:58:15;;;;;;;10.43;6.47;;;;;;;;;;5091241;28;20549;-52
2022/06/30 09:00:42;;;;;;;10.90;6.07;;;;;;;;;;5108600;28;20163;-55
2022/06/30 09:03:09;;;;;;;6.37;5.77;;;;;;;;;;5090930;28;20451;-52
2022/06/30 09:05:39;;;;;;;8.30;5.70;;;;;;;;;;5108914;28;20518;-52
2022/06/30 09:08:06;;;;;;;8.23;5.57;;;;;;;;;;5108943;28;20220;-52
2022/06/30 09:10:32;;;;;;;7.87;6.93;;;;;;;;;;5091008;28;20190;-52
2022/06/30 09:13:03;;;;;;;9.77;6.20;;;;;;;;;;5100415;28;20234;-50
2022/06/30 09:15:38;;;;;;;9.03;5.87;;;;;;;;;;5105542;28;20201;-51
2022/06/30 09:18:04;;;;;;;7.17;5.17;;;;;;;;;;5109896;28;20160;-51
2022/06/30 09:20:37;;;;;;;10.20;5.40;;;;;;;;;;5109184;28;20211;-51
2022/06/30 09:23:19;;;;;;;8.03;5.73;;;;;;;;;;5073892;28;20214;-51
2022/06/30 09:25:49;;;;;;;7.43;5.10;;;;;;;;;;5089011;28;20213;-51
2022/06/30 09:28:16;;;;;;;5.07;4.57;;;;;;;;;;5108858;28;20198;-51
2022/06/30 09:30:42;;;;;;;6.03;4.93;;;;;;;;;;5109373;28;20184;-52
2022/06/30 09:33:10;;;;;;;6.07;5.00;;;;;;;;;;5108838;28;20177;-51
2022/06/30 09:35:38;;;;;;;6.43;5.67;;;;;;;;;;5109027;28;20255;-51
2022/06/30 09:38:09;;;;;;;7.73;4.83;;;;;;;;;;5108344;28;20167;-50
2022/06/30 09:41:00;;;;;;;7.37;4.70;;;;;;;;;;5107729;28;20672;-49
2022/06/30 09:43:34;;;;;;;8.57;5.53;;;;;;;;;;5109062;28;20165;-51
2022/06/30 09:46:00;;;;;;;8.27;5.30;;;;;;;;;;5068876;28;20198;-51
2022/06/30 09:48:28;;;;;;;7.03;4.97;;;;;;;;;;5068830;28;20168;-50
2022/06/30 09:50:58;;;;;;;8.93;5.00;;;;;;;;;;5050296;28;20202;-50
2022/06/30 09:53:24;;;;;;;9.00;5.30;;;;;;;;;;5067608;28;20207;-50
2022/06/30 09:55:51;;;;;;;8.90;4.80;;;;;;;;;;5106777;28;20632;-50
2022/06/30 09:58:35;;;;;;;7.77;4.93;;;;;;;;;;5091011;28;20238;-49
2022/06/30 10:01:01;;;;;;;5.43;4.23;;;;;;;;;;5068632;28;20265;-51
2022/06/30 10:03:28;;;;;;;5.47;4.27;;;;;;;;;;5068384;28;20279;-49
2022/06/30 10:06:09;;;;;;;5.93;4.00;;;;;;;;;;5088101;28;20206;-50
2022/06/30 10:08:35;;;;;;;6.97;3.63;;;;;;;;;;5087698;28;20179;-50
2022/06/30 10:11:02;;;;;;;13.73;4.30;;;;;;;;;;5089077;28;20174;-50
2022/06/30 10:13:28;;;;;;;4.27;3.37;;;;;;;;;;5074460;28;20168;-49
2022/06/30 10:15:55;;;;;;;5.90;3.70;;;;;;;;;;5073622;28;20184;-49
2022/06/30 10:18:25;;;;;;;4.47;3.47;;;;;;;;;;5112841;28;20250;-49
2022/06/30 10:20:51;;;;;;;5.30;3.23;;;;;;;;;;5093856;28;20216;-51
2022/06/30 10:23:21;;;;;;;6.77;4.40;;;;;;;;;;5112214;28;20206;-52
2022/06/30 10:25:55;;;;;;;4.93;3.53;;;;;;;;;;5112483;28;20321;-53
2022/06/30 10:28:22;;;;;;;3.20;3.00;;;;;;;;;;5094621;28;20172;-52
2022/06/30 10:30:48;;;;;;;3.77;3.40;;;;;;;;;;5094103;28;20205;-53
2022/06/30 10:33:17;;;;;;;4.13;3.60;;;;;;;;;;5113159;28;20215;-52
2022/06/30 10:35:46;;;;;;;3.83;3.40;;;;;;;;;;5112779;28;20183;-53
2022/06/30 10:38:22;;;;;;;6.27;3.27;;;;;;;;;;5112308;28;20172;-53
2022/06/30 10:40:52;;;;;;;4.93;3.67;;;;;;;;;;5110883;28;20235;-53
2022/06/30 10:43:19;;;;;;;3.30;3.00;;;;;;;;;;5101832;28;20172;-52
2022/06/30 10:45:55;;;;;;;4.47;3.37;;;;;;;;;;5108524;28;20202;-52
2022/06/30 10:48:22;;;;;;;3.73;3.00;;;;;;;;;;5094498;28;20244;-52
2022/06/30 10:50:50;;;;;;;4.90;3.47;;;;;;;;;;5112136;28;20641;-53
2022/06/30 10:53:42;;;;;;;2.80;2.53;;;;;;;;;;5092929;28;20622;-52
2022/06/30 10:56:09;;;;;;;3.73;2.90;;;;;;;;;;5053497;28;20181;-53
2022/06/30 10:58:35;;;;;;;3.30;3.00;;;;;;;;;;5053979;28;20619;-52
2022/06/30 11:01:03;;;;;;;5.73;3.10;;;;;;;;;;5112044;28;20183;-51
2022/06/30 11:05:58;;;;;;;3.40;3.10;;;;;;;;;;5112138;28;20207;-51
2022/06/30 11:11:21;;;;;;;4.07;3.20;;;;;;;;;;5071981;28;20293;-53
2022/06/30 11:13:48;;;;;;;3.87;3.10;;;;;;;;;;5074719;28;20153;-52
2022/06/30 11:16:15;;;;;;;6.13;2.80;;;;;;;;;;5111749;28;20661;-52
2022/06/30 11:18:41;;;;;;;3.83;3.47;;;;;;;;;;5111291;28;20195;-52
2022/06/30 11:21:08;;;;;;;2.88;2.67;;;;;;;;;;5110444;28;20283;-52
2022/06/30 11:23:41;;;;;;;4.93;3.47;;;;;;;;;;5100877;28;20172;-52
2022/06/30 11:28:55;;;;;;;3.90;3.60;;;;;;;;;;5077612;28;20294;-53
2022/06/30 11:31:26;;;;;;;4.67;4.27;;;;;;;;;;5093246;28;20171;-52
2022/06/30 11:33:53;;;;;;;6.17;4.13;;;;;;;;;;5110817;28;20162;-52
2022/06/30 11:36:20;;;;;;;7.33;4.03;;;;;;;;;;5110608;28;20179;-52
2022/06/30 11:38:53;;;;;;;3.60;3.30;;;;;;;;;;5109811;28;20205;-51
2022/06/30 11:44:14;;;;;;;6.13;4.43;;;;;;;;;;5085825;28;20277;-51
2022/06/30 11:46:54;;;;;;;5.40;3.83;;;;;;;;;;5069916;28;20243;-51
2022/06/30 11:49:20;;;;;;;4.83;4.07;;;;;;;;;;5052827;28;20281;-51
2022/06/30 11:51:47;;;;;;;4.13;3.77;;;;;;;;;;5069100;28;20578;-50
2022/06/30 11:54:14;;;;;;;5.90;3.60;;;;;;;;;;5069886;28;20172;-51
2022/06/30 11:56:52;;;;;;;5.97;3.87;;;;;;;;;;5069216;28;20243;-51
2022/06/30 11:59:18;;;;;;;5.90;5.40;;;;;;;;;;5070735;28;20554;-51
2022/06/30 12:02:00;;;;;;;9.03;3.50;;;;;;;;;;5068941;28;20512;-50
2022/06/30 12:04:27;;;;;;;3.70;3.33;;;;;;;;;;5069153;28;20180;-52
2022/06/30 12:06:53;;;;;;;4.83;3.70;;;;;;;;;;5068857;28;20568;-52
2022/06/30 12:09:19;;;;;;;4.13;3.40;;;;;;;;;;5070524;28;20829;-51
2022/06/30 12:11:46;;;;;;;6.13;3.67;;;;;;;;;;5058268;28;20521;-51
2022/06/30 12:14:12;;;;;;;3.13;2.92;;;;;;;;;;5037458;28;20242;-51
2022/06/30 12:16:39;;;;;;;3.53;3.23;;;;;;;;;;5069853;28;20168;-51
2022/06/30 12:19:05;;;;;;;4.57;3.43;;;;;;;;;;5070982;28;20180;-51
2022/06/30 12:21:33;;;;;;;3.33;2.93;;;;;;;;;;5067532;28;20260;-52
2022/06/30 12:23:59;;;;;;;4.27;3.43;;;;;;;;;;5068947;28;20173;-51
2022/06/30 12:26:26;;;;;;;3.10;2.90;;;;;;;;;;5052036;28;20203;-50
2022/06/30 12:28:55;;;;;;;3.50;3.20;;;;;;;;;;5052017;28;20173;-52
2022/06/30 12:31:29;;;;;;;5.77;3.67;;;;;;;;;;5069804;28;20694;-51
2022/06/30 12:33:57;;;;;;;4.87;3.30;;;;;;;;;;5070363;28;20165;-52
2022/06/30 12:36:24;;;;;;;3.57;3.37;;;;;;;;;;5068568;28;20160;-52
2022/06/30 12:38:50;;;;;;;4.53;3.23;;;;;;;;;;5070066;28;20586;-52
2022/06/30 12:41:16;;;;;;;3.42;2.92;;;;;;;;;;5092318;28;20226;-52
2022/06/30 12:43:43;;;;;;;3.70;3.40;;;;;;;;;;5094156;28;20468;-52
2022/06/30 12:46:11;;;;;;;3.60;3.28;;;;;;;;;;5110668;28;20322;-51
2022/06/30 12:48:45;;;;;;;3.80;3.50;;;;;;;;;;5092147;28;20159;-52
2022/06/30 12:51:13;;;;;;;4.93;3.15;;;;;;;;;;5068656;28;20193;-52
2022/06/30 12:53:40;;;;;;;5.32;4.03;;;;;;;;;;5051305;28;20172;-52
2022/06/30 12:56:08;;;;;;;4.50;3.90;;;;;;;;;;5110418;28;20155;-52
2022/06/30 12:58:48;;;;;;;4.30;4.00;;;;;;;;;;5092090;28;20170;-52
2022/06/30 13:01:24;;;;;;;5.53;3.70;;;;;;;;;;5051638;28;20624;-52
2022/06/30 13:03:53;;;;;;;5.23;3.77;;;;;;;;;;5072883;28;20156;-55
2022/06/30 13:06:20;;;;;;;4.25;3.80;;;;;;;;;;5109251;28;20187;-50
2022/06/30 13:08:47;;;;;;;4.25;3.83;;;;;;;;;;5091349;28;20190;-51
2022/06/30 13:11:15;;;;;;;9.23;3.70;;;;;;;;;;5109510;28;20227;-51
2022/06/30 13:13:42;;;;;;;4.15;3.05;;;;;;;;;;5109535;28;20183;-51
2022/06/30 13:16:08;;;;;;;7.13;3.17;;;;;;;;;;5091514;28;20180;-51
2022/06/30 13:18:34;;;;;;;3.25;3.03;;;;;;;;;;5092073;28;20175;-51
2022/06/30 13:21:00;;;;;;;4.88;3.58;;;;;;;;;;5109126;28;20174;-51
2022/06/30 13:23:26;;;;;;;5.88;3.80;;;;;;;;;;5100638;28;20638;-51
2022/06/30 13:25:52;;;;;;;4.50;3.78;;;;;;;;;;5087698;28;20196;-52
2022/06/30 13:28:18;;;;;;;3.95;3.47;;;;;;;;;;5109814;28;20239;-52
2022/06/30 13:30:47;;;;;;;4.50;4.10;;;;;;;;;;5109428;28;20677;-51
2022/06/30 13:33:13;;;;;;;4.28;3.88;;;;;;;;;;5090524;28;20164;-51
2022/06/30 13:35:39;;;;;;;5.20;3.70;;;;;;;;;;5109211;28;20176;-52
2022/06/30 13:38:05;;;;;;;6.78;4.03;;;;;;;;;;5108557;28;20154;-51
2022/06/30 13:40:31;;;;;;;4.40;4.00;;;;;;;;;;5071116;28;20223;-54
2022/06/30 13:42:58;;;;;;;4.60;4.10;;;;;;;;;;5066847;28;20634;-51
2022/06/30 13:45:24;;;;;;;6.65;4.38;;;;;;;;;;5066968;28;20556;-52
2022/06/30 13:47:50;;;;;;;5.00;4.20;;;;;;;;;;5068503;28;20444;-51
2022/06/30 13:50:16;;;;;;;6.30;3.90;;;;;;;;;;5060824;28;20165;-51
2022/06/30 13:52:43;;;;;;;4.53;3.90;;;;;;;;;;5087951;28;20160;-51
2022/06/30 13:55:09;;;;;;;3.88;3.55;;;;;;;;;;5058057;28;20181;-51
2022/06/30 13:57:35;;;;;;;5.65;4.63;;;;;;;;;;5069095;28;20531;-51
2022/06/30 14:00:04;;;;;;;6.35;4.82;;;;;;;;;;5068301;28;20190;-51
2022/06/30 14:02:30;;;;;;;4.13;3.83;;;;;;;;;;5068198;28;20226;-52
2022/06/30 14:04:57;;;;;;;4.50;3.92;;;;;;;;;;5068778;28;20649;-52
2022/06/30 14:07:24;;;;;;;3.70;3.33;;;;;;;;;;5067632;28;20699;-52
2022/06/30 14:09:52;;;;;;;4.40;4.05;;;;;;;;;;5068555;28;20168;-52
2022/06/30 14:12:18;;;;;;;4.50;3.75;;;;;;;;;;5068369;28;20195;-53
2022/06/30 14:14:45;;;;;;;6.05;4.10;;;;;;;;;;5069118;28;20742;-52
2022/06/30 14:17:11;;;;;;;3.78;3.47;;;;;;;;;;5068448;28;20203;-52
2022/06/30 14:19:37;;;;;;;4.70;4.20;;;;;;;;;;5068893;28;20177;-53
2022/06/30 14:22:03;;;;;;;4.30;3.83;;;;;;;;;;5066212;28;20572;-54
2022/06/30 14:24:30;;;;;;;4.32;3.92;;;;;;;;;;5068358;28;20181;-54
2022/06/30 14:26:57;;;;;;;4.95;4.45;;;;;;;;;;5066345;28;20205;-52
2022/06/30 14:29:23;;;;;;;4.30;3.90;;;;;;;;;;5068943;28;20656;-52
2022/06/30 14:31:49;;;;;;;5.30;4.13;;;;;;;;;;5067003;28;20526;-53
2022/06/30 14:34:24;;;;;;;4.00;3.70;;;;;;;;;;5068291;28;20189;-53
2022/06/30 14:36:50;;;;;;;4.32;3.75;;;;;;;;;;5065281;28;20169;-54
2022/06/30 14:39:20;;;;;;;4.28;3.85;;;;;;;;;;5068145;28;20543;-53
2022/06/30 14:44:38;;;;;;;6.53;4.28;;;;;;;;;;5083571;28;20779;-53
2022/06/30 14:47:04;;;;;;;4.55;4.15;;;;;;;;;;5108854;28;20645;-53
2022/06/30 14:49:33;;;;;;;5.75;3.70;;;;;;;;;;5108128;28;20195;-53
2022/06/30 14:52:00;;;;;;;4.35;3.95;;;;;;;;;;5107447;28;20669;-53
2022/06/30 14:54:26;;;;;;;5.18;4.10;;;;;;;;;;5107894;28;20533;-53
2022/06/30 14:56:52;;;;;;;5.63;4.40;;;;;;;;;;5110964;28;20144;-53
2022/06/30 14:59:19;;;;;;;6.80;3.60;;;;;;;;;;5093364;28;20461;-53
2022/06/30 15:01:45;;;;;;;6.25;4.00;;;;;;;;;;5093282;28;20705;-52
2022/06/30 15:04:11;;;;;;;5.40;3.50;;;;;;;;;;5110938;28;20163;-53
2022/06/30 15:06:38;;;;;;;4.18;3.80;;;;;;;;;;5111039;28;20515;-52
2022/06/30 15:09:04;;;;;;;4.72;4.28;;;;;;;;;;5111836;28;20629;-53
2022/06/30 15:11:30;;;;;;;5.63;3.72;;;;;;;;;;5111938;28;20643;-52
2022/06/30 15:13:58;;;;;;;3.90;3.58;;;;;;;;;;5111422;28;20668;-52